Grays, Arkansas
Current Conditions -  °F | °C
As of 10:56 AM on Wednesday 26 Nov 2014 (Local Time) from KM19 Reporting Station
Overcast Overcast  
Wind Chill: 38°   Ceiling: 9000
Heat Index: 43°   Visibility: 10mi
Dew Point: 36°   Wind: 8mph
Humidity: 76%   Direction: 170°S
Pressure: 30.02"   Gusts: NA
Location:  35.2139°N, 91.1509°W
Report Text: KM19 261656Z AUTO 17007KT 10SM OVC090 06/02 A3002 RMK AO2 T00610022 SLP166
Loading
Personal Weather Stations






























Interactive Weather Map New forecast layout! Learn more

10-Day Weather Forecast

Advertisements
Track Severe Weather on mobile